Anna M — TCAD8 — position and weather

sailwx.info

Track history (hours):
 
Tides and Currents Weather Stations Pressure Air Temp Water Temp Dewpoint Dewpoint Depression Visibility Wind Speed Wind Dir Waves Ship Positions

Anna M

Last reported at 2017-Nov-16 04:46 UTC. Time now 2017-Nov-20 06:10 UTC.
Position N 39°56' E 024°02'.

Length 67 m; draft 5 m.

Type: Cargo ship. MMSI: 271002123.

Date/timePositionNaut miles runAvg speedWind from/ knotsBaromVisibWave heightAir tempDewpointWater temp
2017-Nov-16 04:46N 39°56' E 024°02'3 8.1
2017-Nov-16 04:28N 39°56' E 024°05'4 7.9
2017-Nov-16 03:58N 39°56' E 024°10'4 8.0
2017-Nov-16 03:30N 39°57' E 024°15'22 8.0
2017-Nov-16 00:45N 40°01' E 024°43'12 8.3
2017-Nov-15 23:18N 40°02' E 024°59'191 8.5
2017-Nov-15 00:58N 40°49' E 029°02'4 8.3
2017-Nov-15 00:30N 40°50' E 029°07'4 7.4
2017-Nov-15 00:00N 40°52' E 029°11'1 1.7
2017-Nov-14 23:27N 40°53' E 029°11'0 0.0
2017-Nov-14 23:00N 40°53' E 029°11'0 0.0
2017-Nov-14 22:30N 40°53' E 029°11'0 0.0
2017-Nov-14 22:00N 40°53' E 029°11'0 0.0
2017-Nov-14 21:30N 40°53' E 029°11'0 0.0
2017-Nov-14 21:00N 40°53' E 029°11'0 0.0
2017-Nov-14 20:30N 40°53' E 029°11'0 0.0
2017-Nov-14 20:00N 40°53' E 029°11'0 0.0
2017-Nov-14 19:30N 40°53' E 029°11'0 0.0
2017-Nov-14 19:00N 40°53' E 029°11'0 0.0
2017-Nov-14 18:30N 40°53' E 029°11'0 0.0
2017-Nov-14 18:00N 40°53' E 029°11'0 0.0
2017-Nov-14 17:30N 40°53' E 029°11'0 0.0
2017-Nov-14 17:00N 40°53' E 029°11'0 0.0
2017-Nov-14 16:17N 40°53' E 029°11'0 0.0
2017-Nov-14 15:59N 40°53' E 029°11'0 0.0
2017-Nov-14 15:30N 40°53' E 029°11'5 0.6
2017-Nov-14 07:09N 40°48' E 029°14'1 7.8
2017-Nov-14 07:00N 40°48' E 029°15'4 7.9
2017-Nov-14 06:28N 40°45' E 029°20'  
2017-Nov-11 23:16N 40°04' E 025°28'5 9.8
2017-Nov-11 22:46N 40°03' E 025°22'3 9.9
2017-Nov-11 22:30N 40°03' E 025°18'6 9.9
2017-Nov-11 21:53N 40°03' E 025°10'410.0
2017-Nov-11 21:27N 40°04' E 025°05'410.0
2017-Nov-11 21:00N 40°04' E 024°59'5 9.5
2017-Nov-11 20:26N 40°02' E 024°52'4 9.2
2017-Nov-11 19:58N 40°01' E 024°47'4 9.5
2017-Nov-11 19:30N 39°60' E 024°41'17 9.8
2017-Nov-11 17:47N 39°58' E 024°19'410.0
2017-Nov-11 17:24N 39°57' E 024°14'4 9.9
2017-Nov-11 17:00N 39°56' E 024°09'510.1
2017-Nov-11 16:28N 39°55' E 024°02'  
2017-Nov-08 22:06N 39°56' E 024°02'2 7.8
2017-Nov-08 21:47N 39°56' E 024°05'2 7.9
2017-Nov-08 21:30N 39°57' E 024°08'4 7.9
2017-Nov-08 20:59N 39°58' E 024°14'22 8.0
2017-Nov-08 18:17N 40°02' E 024°41'3 8.2
2017-Nov-08 17:55N 40°02' E 024°45'6 8.0
2017-Nov-08 17:07N 40°02' E 024°54'4 8.1
2017-Nov-08 16:39N 40°02' E 024°59'189 5.3
2017-Nov-07 05:06N 40°25' E 029°05'0 0.0
2017-Nov-07 04:54N 40°25' E 029°05'0 0.0
2017-Nov-07 04:30N 40°25' E 029°05'0 0.0
2017-Nov-07 03:24N 40°25' E 029°05'0 0.0
2017-Nov-07 02:51N 40°25' E 029°05'0 0.0
2017-Nov-07 02:27N 40°25' E 029°05'0 0.0
2017-Nov-07 01:45N 40°25' E 029°05'0 0.0
2017-Nov-07 01:21N 40°25' E 029°05'0 0.0
2017-Nov-07 00:57N 40°25' E 029°05'0 0.0
2017-Nov-07 00:27N 40°25' E 029°05'0 0.0
2017-Nov-06 23:57N 40°25' E 029°05'0 0.0
2017-Nov-06 23:27N 40°25' E 029°05'0 0.0
2017-Nov-06 22:51N 40°25' E 029°05'0 0.1
2017-Nov-06 22:24N 40°25' E 029°05'0 0.0
2017-Nov-06 22:00N 40°25' E 029°05'0 0.0
2017-Nov-06 21:30N 40°25' E 029°05'0 0.0
2017-Nov-06 20:54N 40°25' E 029°05'0 0.0
2017-Nov-06 20:09N 40°25' E 029°05'  
Track history (hours):
 
Tides and Currents Weather Stations Pressure Air Temp Water Temp Dewpoint Dewpoint Depression Visibility Wind Speed Wind Dir Waves Ship Positions

Anna M

Last reported at 2017-Nov-16 04:46 UTC. Time now 2017-Nov-20 06:10 UTC.
Position N 39°56' E 024°02'.

Length 67 m; draft 5 m.

Type: Cargo ship. MMSI: 271002123.

Date/timePositionNaut miles runAvg speedWind from/ knotsBaromVisibWave heightAir tempDewpointWater temp
2017-Nov-16 04:46N 39°56' E 024°02'3 8.1
2017-Nov-16 04:28N 39°56' E 024°05'4 7.9
2017-Nov-16 03:58N 39°56' E 024°10'4 8.0
2017-Nov-16 03:30N 39°57' E 024°15'22 8.0
2017-Nov-16 00:45N 40°01' E 024°43'12 8.3
2017-Nov-15 23:18N 40°02' E 024°59'191 8.5
2017-Nov-15 00:58N 40°49' E 029°02'4 8.3
2017-Nov-15 00:30N 40°50' E 029°07'4 7.4
2017-Nov-15 00:00N 40°52' E 029°11'1 1.7
2017-Nov-14 23:27N 40°53' E 029°11'0 0.0
2017-Nov-14 23:00N 40°53' E 029°11'0 0.0
2017-Nov-14 22:30N 40°53' E 029°11'0 0.0
2017-Nov-14 22:00N 40°53' E 029°11'0 0.0
2017-Nov-14 21:30N 40°53' E 029°11'0 0.0
2017-Nov-14 21:00N 40°53' E 029°11'0 0.0
2017-Nov-14 20:30N 40°53' E 029°11'0 0.0
2017-Nov-14 20:00N 40°53' E 029°11'0 0.0
2017-Nov-14 19:30N 40°53' E 029°11'0 0.0
2017-Nov-14 19:00N 40°53' E 029°11'0 0.0
2017-Nov-14 18:30N 40°53' E 029°11'0 0.0
2017-Nov-14 18:00N 40°53' E 029°11'0 0.0
2017-Nov-14 17:30N 40°53' E 029°11'0 0.0
2017-Nov-14 17:00N 40°53' E 029°11'0 0.0
2017-Nov-14 16:17N 40°53' E 029°11'0 0.0
2017-Nov-14 15:59N 40°53' E 029°11'0 0.0
2017-Nov-14 15:30N 40°53' E 029°11'5 0.6
2017-Nov-14 07:09N 40°48' E 029°14'1 7.8
2017-Nov-14 07:00N 40°48' E 029°15'4 7.9
2017-Nov-14 06:28N 40°45' E 029°20'  
2017-Nov-11 23:16N 40°04' E 025°28'5 9.8
2017-Nov-11 22:46N 40°03' E 025°22'3 9.9
2017-Nov-11 22:30N 40°03' E 025°18'6 9.9
2017-Nov-11 21:53N 40°03' E 025°10'410.0
2017-Nov-11 21:27N 40°04' E 025°05'410.0
2017-Nov-11 21:00N 40°04' E 024°59'5 9.5
2017-Nov-11 20:26N 40°02' E 024°52'4 9.2
2017-Nov-11 19:58N 40°01' E 024°47'4 9.5
2017-Nov-11 19:30N 39°60' E 024°41'17 9.8
2017-Nov-11 17:47N 39°58' E 024°19'410.0
2017-Nov-11 17:24N 39°57' E 024°14'4 9.9
2017-Nov-11 17:00N 39°56' E 024°09'510.1
2017-Nov-11 16:28N 39°55' E 024°02'  
2017-Nov-08 22:06N 39°56' E 024°02'2 7.8
2017-Nov-08 21:47N 39°56' E 024°05'2 7.9
2017-Nov-08 21:30N 39°57' E 024°08'4 7.9
2017-Nov-08 20:59N 39°58' E 024°14'22 8.0
2017-Nov-08 18:17N 40°02' E 024°41'3 8.2
2017-Nov-08 17:55N 40°02' E 024°45'6 8.0
2017-Nov-08 17:07N 40°02' E 024°54'4 8.1
2017-Nov-08 16:39N 40°02' E 024°59'189 5.3
2017-Nov-07 05:06N 40°25' E 029°05'0 0.0
2017-Nov-07 04:54N 40°25' E 029°05'0 0.0
2017-Nov-07 04:30N 40°25' E 029°05'0 0.0
2017-Nov-07 03:24N 40°25' E 029°05'0 0.0
2017-Nov-07 02:51N 40°25' E 029°05'0 0.0
2017-Nov-07 02:27N 40°25' E 029°05'0 0.0
2017-Nov-07 01:45N 40°25' E 029°05'0 0.0
2017-Nov-07 01:21N 40°25' E 029°05'0 0.0
2017-Nov-07 00:57N 40°25' E 029°05'0 0.0
2017-Nov-07 00:27N 40°25' E 029°05'0 0.0
2017-Nov-06 23:57N 40°25' E 029°05'0 0.0
2017-Nov-06 23:27N 40°25' E 029°05'0 0.0
2017-Nov-06 22:51N 40°25' E 029°05'0 0.1
2017-Nov-06 22:24N 40°25' E 029°05'0 0.0
2017-Nov-06 22:00N 40°25' E 029°05'0 0.0
2017-Nov-06 21:30N 40°25' E 029°05'0 0.0
2017-Nov-06 20:54N 40°25' E 029°05'0 0.0
2017-Nov-06 20:09N 40°25' E 029°05'  

Dump ship's entire track history